Ostseküste, Lübeck, Kiel, Schwerin

2020/06/02 07:50 EDHL 020750Z 34003KT 270V050 CAVOK 21/07 Q1021
2020/06/02 06:27 TAF EDHL 020500Z 0206/0215 VRB03KT CAVOK TEMPO 0208/0215 05007KT
2010/02/22 14:20 METAR EDHL 221420Z 15004KT 110V180 9999 FEW039 SCT120 05/02 Q0990 RMK X

2020/06/02 07:50 EDHK 020750Z VRB02KT CAVOK 21/09 Q1021
2020/06/02 07:12 TAF EDHK 020600Z 0207/0215 VRB03KT CAVOK TEMPO 0208/0215 05005KT
2013/08/11 06:39 TAF EDHK 110633Z 1106/1118 24005KT 9999 SCT030 BECMG 1106/1109 25010KT TEMPO 1106/1118 27015G25KT 4500 SHRA BKN012CB

2019/03/31 14:50 EDOP 311450Z 35010KT 310V020 CAVOK 09/M06 Q1025
2011/02/23 00:27 TAF EDOP 232315Z 2400/2412 CNL
2019/03/31 16:15 TAF AMD EDOP 311609Z 3116/0112 CNL

2020/06/02 METAR von: , derzeit nicht verfübar.
2020/06/02 TAF (short) von: , derzeit nicht verfübar.
2020/06/02 TAF (long) von: , derzeit nicht verfübar.